sensor_id;sensor_type;location;lat;lon;timestamp;temperature;humidity
569;DHT22;269;48.884;9.192;2022-10-22T00:00:16;13.50;99.90
569;DHT22;269;48.884;9.192;2022-10-22T00:02:44;13.50;99.90
569;DHT22;269;48.884;9.192;2022-10-22T00:05:11;13.50;99.90
569;DHT22;269;48.884;9.192;2022-10-22T00:07:38;13.50;99.90
569;DHT22;269;48.884;9.192;2022-10-22T00:10:08;13.40;99.90
569;DHT22;269;48.884;9.192;2022-10-22T00:12:36;13.40;99.90
569;DHT22;269;48.884;9.192;2022-10-22T00:15:03;13.30;99.90
569;DHT22;269;48.884;9.192;2022-10-22T00:17:31;13.30;99.90
569;DHT22;269;48.884;9.192;2022-10-22T00:19:58;13.30;99.90
569;DHT22;269;48.884;9.192;2022-10-22T00:22:25;13.30;99.90
569;DHT22;269;48.884;9.192;2022-10-22T00:24:52;13.20;99.90
569;DHT22;269;48.884;9.192;2022-10-22T00:27:21;13.20;99.90
569;DHT22;269;48.884;9.192;2022-10-22T00:29:48;13.20;99.90
569;DHT22;269;48.884;9.192;2022-10-22T00:32:15;13.20;99.90
569;DHT22;269;48.884;9.192;2022-10-22T00:34:42;13.20;99.90
569;DHT22;269;48.884;9.192;2022-10-22T00:37:10;13.20;99.90
569;DHT22;269;48.884;9.192;2022-10-22T00:39:37;13.10;99.90
569;DHT22;269;48.884;9.192;2022-10-22T00:42:04;13.20;99.90
569;DHT22;269;48.884;9.192;2022-10-22T00:44:59;13.20;99.90
569;DHT22;269;48.884;9.192;2022-10-22T00:47:31;13.20;99.90
569;DHT22;269;48.884;9.192;2022-10-22T00:49:59;13.20;99.90
569;DHT22;269;48.884;9.192;2022-10-22T00:52:28;13.20;99.90
569;DHT22;269;48.884;9.192;2022-10-22T00:54:56;13.20;99.90
569;DHT22;269;48.884;9.192;2022-10-22T00:57:23;13.20;99.90
569;DHT22;269;48.884;9.192;2022-10-22T00:59:50;13.20;99.90
569;DHT22;269;48.884;9.192;2022-10-22T01:02:19;13.30;99.90
569;DHT22;269;48.884;9.192;2022-10-22T01:04:46;13.30;99.90
569;DHT22;269;48.884;9.192;2022-10-22T01:07:16;13.30;99.90
569;DHT22;269;48.884;9.192;2022-10-22T01:09:50;13.30;99.90
569;DHT22;269;48.884;9.192;2022-10-22T01:12:27;13.30;99.90
569;DHT22;269;48.884;9.192;2022-10-22T01:15:06;13.40;99.90
569;DHT22;269;48.884;9.192;2022-10-22T01:17:41;13.40;99.90
569;DHT22;269;48.884;9.192;2022-10-22T01:20:30;13.40;99.90
569;DHT22;269;48.884;9.192;2022-10-22T01:23:12;13.40;99.90
569;DHT22;269;48.884;9.192;2022-10-22T01:25:49;13.40;99.90
569;DHT22;269;48.884;9.192;2022-10-22T01:28:34;13.40;99.90
569;DHT22;269;48.884;9.192;2022-10-22T01:31:02;13.40;99.90
569;DHT22;269;48.884;9.192;2022-10-22T01:33:31;13.40;99.90
569;DHT22;269;48.884;9.192;2022-10-22T01:35:59;13.40;99.90
569;DHT22;269;48.884;9.192;2022-10-22T01:38:28;13.30;99.90
569;DHT22;269;48.884;9.192;2022-10-22T01:40:55;13.30;99.90
569;DHT22;269;48.884;9.192;2022-10-22T01:43:23;13.30;99.90
569;DHT22;269;48.884;9.192;2022-10-22T01:45:56;13.30;99.90
569;DHT22;269;48.884;9.192;2022-10-22T01:48:35;13.40;99.90
569;DHT22;269;48.884;9.192;2022-10-22T01:51:32;13.40;99.90
569;DHT22;269;48.884;9.192;2022-10-22T01:54:07;13.40;99.90
569;DHT22;269;48.884;9.192;2022-10-22T01:56:51;13.40;99.90
569;DHT22;269;48.884;9.192;2022-10-22T01:59:28;13.50;99.90
569;DHT22;269;48.884;9.192;2022-10-22T02:02:03;13.40;99.90
569;DHT22;269;48.884;9.192;2022-10-22T02:04:34;13.50;99.90
569;DHT22;269;48.884;9.192;2022-10-22T02:07:10;13.50;99.90
569;DHT22;269;48.884;9.192;2022-10-22T02:09:39;13.50;99.90
569;DHT22;269;48.884;9.192;2022-10-22T02:12:08;13.50;99.90
569;DHT22;269;48.884;9.192;2022-10-22T02:14:38;13.60;99.90
569;DHT22;269;48.884;9.192;2022-10-22T02:17:12;13.60;99.90
569;DHT22;269;48.884;9.192;2022-10-22T02:19:45;13.60;99.90
569;DHT22;269;48.884;9.192;2022-10-22T02:22:13;13.70;99.90
569;DHT22;269;48.884;9.192;2022-10-22T02:24:40;13.90;99.90
569;DHT22;269;48.884;9.192;2022-10-22T02:27:11;13.80;99.90
569;DHT22;269;48.884;9.192;2022-10-22T02:29:44;13.90;99.90
569;DHT22;269;48.884;9.192;2022-10-22T02:32:20;13.90;99.90
569;DHT22;269;48.884;9.192;2022-10-22T02:34:49;13.90;99.90
569;DHT22;269;48.884;9.192;2022-10-22T02:37:17;14.00;99.90
569;DHT22;269;48.884;9.192;2022-10-22T02:39:44;14.10;99.90
569;DHT22;269;48.884;9.192;2022-10-22T02:42:13;14.10;99.90
569;DHT22;269;48.884;9.192;2022-10-22T02:44:40;14.10;99.90
569;DHT22;269;48.884;9.192;2022-10-22T02:47:07;14.10;99.90
569;DHT22;269;48.884;9.192;2022-10-22T02:49:35;14.10;99.90
569;DHT22;269;48.884;9.192;2022-10-22T02:52:02;14.10;99.90
569;DHT22;269;48.884;9.192;2022-10-22T02:54:29;14.00;99.90
569;DHT22;269;48.884;9.192;2022-10-22T02:56:57;14.00;99.90
569;DHT22;269;48.884;9.192;2022-10-22T02:59:24;13.90;99.90
569;DHT22;269;48.884;9.192;2022-10-22T03:01:51;13.90;99.90
569;DHT22;269;48.884;9.192;2022-10-22T03:04:18;13.80;99.90
569;DHT22;269;48.884;9.192;2022-10-22T03:06:47;13.70;99.90
569;DHT22;269;48.884;9.192;2022-10-22T03:09:14;13.60;99.90
569;DHT22;269;48.884;9.192;2022-10-22T03:11:41;13.60;99.90
569;DHT22;269;48.884;9.192;2022-10-22T03:14:09;13.50;99.90
569;DHT22;269;48.884;9.192;2022-10-22T03:16:36;13.60;99.90
569;DHT22;269;48.884;9.192;2022-10-22T03:19:03;13.40;99.90
569;DHT22;269;48.884;9.192;2022-10-22T03:21:34;13.50;99.90
569;DHT22;269;48.884;9.192;2022-10-22T03:24:08;13.50;99.90
569;DHT22;269;48.884;9.192;2022-10-22T03:26:37;13.50;99.90
569;DHT22;269;48.884;9.192;2022-10-22T03:29:05;13.50;99.90
569;DHT22;269;48.884;9.192;2022-10-22T03:31:32;13.50;99.90
569;DHT22;269;48.884;9.192;2022-10-22T03:33:59;13.50;99.90
569;DHT22;269;48.884;9.192;2022-10-22T03:36:27;13.50;99.90
569;DHT22;269;48.884;9.192;2022-10-22T03:38:54;13.50;99.90
569;DHT22;269;48.884;9.192;2022-10-22T03:41:22;13.50;99.90
569;DHT22;269;48.884;9.192;2022-10-22T03:43:50;13.50;99.90
569;DHT22;269;48.884;9.192;2022-10-22T03:46:18;13.40;99.90
569;DHT22;269;48.884;9.192;2022-10-22T03:48:46;13.40;99.90
569;DHT22;269;48.884;9.192;2022-10-22T03:51:13;13.40;99.90
569;DHT22;269;48.884;9.192;2022-10-22T03:53:40;13.30;99.90
569;DHT22;269;48.884;9.192;2022-10-22T03:56:08;13.30;99.90
569;DHT22;269;48.884;9.192;2022-10-22T03:58:39;13.30;99.90
569;DHT22;269;48.884;9.192;2022-10-22T04:01:07;13.30;99.90
569;DHT22;269;48.884;9.192;2022-10-22T04:03:34;13.20;99.90
569;DHT22;269;48.884;9.192;2022-10-22T04:06:02;13.20;99.90
569;DHT22;269;48.884;9.192;2022-10-22T04:08:29;13.10;99.90
569;DHT22;269;48.884;9.192;2022-10-22T04:10:56;13.10;99.90
569;DHT22;269;48.884;9.192;2022-10-22T04:13:23;13.10;99.90
569;DHT22;269;48.884;9.192;2022-10-22T04:15:52;13.10;99.90
569;DHT22;269;48.884;9.192;2022-10-22T04:18:20;13.10;99.90
569;DHT22;269;48.884;9.192;2022-10-22T04:20:50;13.20;99.90
569;DHT22;269;48.884;9.192;2022-10-22T04:23:17;13.20;99.90
569;DHT22;269;48.884;9.192;2022-10-22T04:25:44;13.20;99.90
569;DHT22;269;48.884;9.192;2022-10-22T04:28:11;13.00;99.90
569;DHT22;269;48.884;9.192;2022-10-22T04:30:38;13.20;99.90
569;DHT22;269;48.884;9.192;2022-10-22T04:33:07;13.20;99.90
569;DHT22;269;48.884;9.192;2022-10-22T04:35:37;13.20;99.90
569;DHT22;269;48.884;9.192;2022-10-22T04:38:04;13.30;99.90
569;DHT22;269;48.884;9.192;2022-10-22T04:40:32;13.20;99.90
569;DHT22;269;48.884;9.192;2022-10-22T04:42:59;13.20;99.90
569;DHT22;269;48.884;9.192;2022-10-22T04:45:26;13.30;99.90
569;DHT22;269;48.884;9.192;2022-10-22T04:47:54;13.30;99.90
569;DHT22;269;48.884;9.192;2022-10-22T04:50:22;13.30;99.90
569;DHT22;269;48.884;9.192;2022-10-22T04:52:50;13.30;99.90
569;DHT22;269;48.884;9.192;2022-10-22T04:55:17;13.40;99.90
569;DHT22;269;48.884;9.192;2022-10-22T04:57:44;13.40;99.90
569;DHT22;269;48.884;9.192;2022-10-22T05:00:12;13.40;99.90
569;DHT22;269;48.884;9.192;2022-10-22T05:02:41;13.50;99.90
569;DHT22;269;48.884;9.192;2022-10-22T05:05:09;13.50;99.90
569;DHT22;269;48.884;9.192;2022-10-22T05:07:38;13.60;99.90
569;DHT22;269;48.884;9.192;2022-10-22T05:10:06;13.60;99.90
569;DHT22;269;48.884;9.192;2022-10-22T05:12:34;13.60;99.90
569;DHT22;269;48.884;9.192;2022-10-22T05:15:01;13.70;99.90
569;DHT22;269;48.884;9.192;2022-10-22T05:17:28;13.70;99.90
569;DHT22;269;48.884;9.192;2022-10-22T05:19:55;13.70;99.90
569;DHT22;269;48.884;9.192;2022-10-22T05:22:22;13.80;99.90
569;DHT22;269;48.884;9.192;2022-10-22T05:24:50;13.80;99.90
569;DHT22;269;48.884;9.192;2022-10-22T05:27:18;14.00;99.90
569;DHT22;269;48.884;9.192;2022-10-22T05:29:45;13.90;99.90
569;DHT22;269;48.884;9.192;2022-10-22T05:32:12;13.90;99.90
569;DHT22;269;48.884;9.192;2022-10-22T05:34:39;13.90;99.90
569;DHT22;269;48.884;9.192;2022-10-22T05:37:06;13.90;99.90
569;DHT22;269;48.884;9.192;2022-10-22T05:39:33;13.90;99.90
569;DHT22;269;48.884;9.192;2022-10-22T05:42:03;13.90;99.90
569;DHT22;269;48.884;9.192;2022-10-22T05:44:30;13.90;99.90
569;DHT22;269;48.884;9.192;2022-10-22T05:46:57;13.90;99.90
569;DHT22;269;48.884;9.192;2022-10-22T05:49:24;13.90;99.90
569;DHT22;269;48.884;9.192;2022-10-22T05:51:51;13.90;99.90
569;DHT22;269;48.884;9.192;2022-10-22T05:54:19;13.90;99.90
569;DHT22;269;48.884;9.192;2022-10-22T05:56:47;13.90;99.90
569;DHT22;269;48.884;9.192;2022-10-22T05:59:15;13.90;99.90
569;DHT22;269;48.884;9.192;2022-10-22T06:01:42;13.90;99.90
569;DHT22;269;48.884;9.192;2022-10-22T06:04:11;14.00;99.90
569;DHT22;269;48.884;9.192;2022-10-22T06:06:41;13.90;99.90
569;DHT22;269;48.884;9.192;2022-10-22T06:09:13;14.00;99.90
569;DHT22;269;48.884;9.192;2022-10-22T06:11:42;13.90;99.90
569;DHT22;269;48.884;9.192;2022-10-22T06:14:10;13.90;99.90
569;DHT22;269;48.884;9.192;2022-10-22T06:16:38;13.90;99.90
569;DHT22;269;48.884;9.192;2022-10-22T06:19:07;14.00;99.90
569;DHT22;269;48.884;9.192;2022-10-22T06:21:34;13.90;99.90
569;DHT22;269;48.884;9.192;2022-10-22T06:24:01;13.90;99.90
569;DHT22;269;48.884;9.192;2022-10-22T06:26:28;13.90;99.90
569;DHT22;269;48.884;9.192;2022-10-22T06:28:56;13.90;99.90
569;DHT22;269;48.884;9.192;2022-10-22T06:31:24;13.90;99.90
569;DHT22;269;48.884;9.192;2022-10-22T06:33:53;13.80;99.90
569;DHT22;269;48.884;9.192;2022-10-22T06:36:22;13.80;99.90
569;DHT22;269;48.884;9.192;2022-10-22T06:38:51;13.80;99.90
569;DHT22;269;48.884;9.192;2022-10-22T06:41:18;13.90;99.90
569;DHT22;269;48.884;9.192;2022-10-22T06:43:45;13.90;99.90
569;DHT22;269;48.884;9.192;2022-10-22T06:46:14;13.90;99.90
569;DHT22;269;48.884;9.192;2022-10-22T06:48:42;14.00;99.90
569;DHT22;269;48.884;9.192;2022-10-22T06:51:15;14.00;99.90
569;DHT22;269;48.884;9.192;2022-10-22T06:53:43;14.10;99.90
569;DHT22;269;48.884;9.192;2022-10-22T06:56:12;14.10;99.90
569;DHT22;269;48.884;9.192;2022-10-22T06:58:40;14.20;99.90
569;DHT22;269;48.884;9.192;2022-10-22T07:01:09;14.10;99.90
569;DHT22;269;48.884;9.192;2022-10-22T07:03:37;14.10;99.90
569;DHT22;269;48.884;9.192;2022-10-22T07:06:09;14.10;99.90
569;DHT22;269;48.884;9.192;2022-10-22T07:08:38;14.10;99.90
569;DHT22;269;48.884;9.192;2022-10-22T07:11:08;14.20;99.90
569;DHT22;269;48.884;9.192;2022-10-22T07:13:35;14.20;99.90
569;DHT22;269;48.884;9.192;2022-10-22T07:16:03;14.30;99.90
569;DHT22;269;48.884;9.192;2022-10-22T07:18:31;14.30;99.90
569;DHT22;269;48.884;9.192;2022-10-22T07:20:59;14.50;99.90
569;DHT22;269;48.884;9.192;2022-10-22T07:23:27;14.70;99.90
569;DHT22;269;48.884;9.192;2022-10-22T07:25:55;14.80;99.90
569;DHT22;269;48.884;9.192;2022-10-22T07:28:23;14.90;99.90
569;DHT22;269;48.884;9.192;2022-10-22T07:30:50;15.10;99.90
569;DHT22;269;48.884;9.192;2022-10-22T07:33:17;15.30;99.90
569;DHT22;269;48.884;9.192;2022-10-22T07:35:44;15.40;99.90
569;DHT22;269;48.884;9.192;2022-10-22T07:38:11;15.50;99.90
569;DHT22;269;48.884;9.192;2022-10-22T07:40:38;15.60;99.90
569;DHT22;269;48.884;9.192;2022-10-22T07:43:07;15.60;99.90
569;DHT22;269;48.884;9.192;2022-10-22T07:45:35;15.60;99.90
569;DHT22;269;48.884;9.192;2022-10-22T07:48:02;15.60;99.90
569;DHT22;269;48.884;9.192;2022-10-22T07:50:29;15.70;99.90
569;DHT22;269;48.884;9.192;2022-10-22T07:52:56;15.70;99.90
569;DHT22;269;48.884;9.192;2022-10-22T07:55:23;15.80;99.90
569;DHT22;269;48.884;9.192;2022-10-22T07:57:51;15.80;99.90
569;DHT22;269;48.884;9.192;2022-10-22T08:00:20;15.80;99.90
569;DHT22;269;48.884;9.192;2022-10-22T08:02:47;15.70;99.90
569;DHT22;269;48.884;9.192;2022-10-22T08:05:14;15.80;99.90
569;DHT22;269;48.884;9.192;2022-10-22T08:07:41;16.10;99.90
569;DHT22;269;48.884;9.192;2022-10-22T08:10:09;16.40;99.90
569;DHT22;269;48.884;9.192;2022-10-22T08:12:37;16.70;99.90
569;DHT22;269;48.884;9.192;2022-10-22T08:15:06;17.00;99.90
569;DHT22;269;48.884;9.192;2022-10-22T08:17:34;17.60;99.90
569;DHT22;269;48.884;9.192;2022-10-22T08:20:02;18.20;99.90
569;DHT22;269;48.884;9.192;2022-10-22T08:22:29;18.40;99.90
569;DHT22;269;48.884;9.192;2022-10-22T08:24:56;18.70;99.90
569;DHT22;269;48.884;9.192;2022-10-22T08:27:25;18.90;99.90
569;DHT22;269;48.884;9.192;2022-10-22T08:29:52;19.10;99.90
569;DHT22;269;48.884;9.192;2022-10-22T08:32:19;19.20;99.90
569;DHT22;269;48.884;9.192;2022-10-22T08:34:48;19.50;99.90
569;DHT22;269;48.884;9.192;2022-10-22T08:37:16;19.60;99.90
569;DHT22;269;48.884;9.192;2022-10-22T08:39:43;19.70;99.90
569;DHT22;269;48.884;9.192;2022-10-22T08:42:29;19.80;99.90
569;DHT22;269;48.884;9.192;2022-10-22T08:45:07;20.00;99.90
569;DHT22;269;48.884;9.192;2022-10-22T08:47:50;20.10;99.90
569;DHT22;269;48.884;9.192;2022-10-22T08:50:33;19.80;99.90
569;DHT22;269;48.884;9.192;2022-10-22T08:53:04;19.80;99.90
569;DHT22;269;48.884;9.192;2022-10-22T08:55:33;20.10;99.90
569;DHT22;269;48.884;9.192;2022-10-22T08:58:06;20.30;99.90
569;DHT22;269;48.884;9.192;2022-10-22T09:00:44;20.70;99.90
569;DHT22;269;48.884;9.192;2022-10-22T09:03:26;21.00;99.90
569;DHT22;269;48.884;9.192;2022-10-22T09:06:01;21.10;99.90
569;DHT22;269;48.884;9.192;2022-10-22T09:08:31;21.30;99.90
569;DHT22;269;48.884;9.192;2022-10-22T09:11:02;21.30;99.90
569;DHT22;269;48.884;9.192;2022-10-22T09:13:31;21.30;99.90
569;DHT22;269;48.884;9.192;2022-10-22T09:16:00;21.60;99.90
569;DHT22;269;48.884;9.192;2022-10-22T09:18:41;21.60;99.90
569;DHT22;269;48.884;9.192;2022-10-22T09:21:22;21.60;99.90
569;DHT22;269;48.884;9.192;2022-10-22T09:23:57;21.60;99.90
569;DHT22;269;48.884;9.192;2022-10-22T09:26:27;21.70;99.90
569;DHT22;269;48.884;9.192;2022-10-22T09:28:58;21.70;99.90
569;DHT22;269;48.884;9.192;2022-10-22T09:31:27;21.90;99.90
569;DHT22;269;48.884;9.192;2022-10-22T09:33:57;21.90;99.90
569;DHT22;269;48.884;9.192;2022-10-22T09:36:28;21.90;99.90
569;DHT22;269;48.884;9.192;2022-10-22T09:38:55;22.10;99.90
569;DHT22;269;48.884;9.192;2022-10-22T09:41:24;22.20;99.90
569;DHT22;269;48.884;9.192;2022-10-22T09:43:53;22.10;99.90
569;DHT22;269;48.884;9.192;2022-10-22T09:46:22;22.60;99.90
569;DHT22;269;48.884;9.192;2022-10-22T09:48:56;22.60;99.90
569;DHT22;269;48.884;9.192;2022-10-22T09:51:36;22.70;99.90
569;DHT22;269;48.884;9.192;2022-10-22T09:54:14;22.90;99.90
569;DHT22;269;48.884;9.192;2022-10-22T09:56:45;23.10;99.90
569;DHT22;269;48.884;9.192;2022-10-22T09:59:14;22.90;99.90
569;DHT22;269;48.884;9.192;2022-10-22T10:01:42;23.10;99.90
569;DHT22;269;48.884;9.192;2022-10-22T10:04:11;23.20;99.90
569;DHT22;269;48.884;9.192;2022-10-22T10:06:41;23.20;99.90
569;DHT22;269;48.884;9.192;2022-10-22T10:09:14;23.20;99.90
569;DHT22;269;48.884;9.192;2022-10-22T10:11:45;23.40;99.90
569;DHT22;269;48.884;9.192;2022-10-22T10:14:19;23.60;99.90
569;DHT22;269;48.884;9.192;2022-10-22T10:16:55;23.90;99.90
569;DHT22;269;48.884;9.192;2022-10-22T10:19:33;24.30;99.90
569;DHT22;269;48.884;9.192;2022-10-22T10:22:13;24.60;99.90
569;DHT22;269;48.884;9.192;2022-10-22T10:24:53;24.50;99.90
569;DHT22;269;48.884;9.192;2022-10-22T10:27:29;24.00;99.90
569;DHT22;269;48.884;9.192;2022-10-22T10:30:02;23.60;99.90
569;DHT22;269;48.884;9.192;2022-10-22T10:32:46;23.40;99.90
569;DHT22;269;48.884;9.192;2022-10-22T10:35:20;23.50;99.90
569;DHT22;269;48.884;9.192;2022-10-22T10:38:01;23.90;99.90
569;DHT22;269;48.884;9.192;2022-10-22T10:40:41;24.40;99.90
569;DHT22;269;48.884;9.192;2022-10-22T10:43:16;24.90;99.90
569;DHT22;269;48.884;9.192;2022-10-22T10:45:53;25.20;99.90
569;DHT22;269;48.884;9.192;2022-10-22T10:48:33;25.40;99.90
569;DHT22;269;48.884;9.192;2022-10-22T10:51:07;25.50;99.90
569;DHT22;269;48.884;9.192;2022-10-22T10:53:52;25.60;99.90
569;DHT22;269;48.884;9.192;2022-10-22T10:56:29;24.90;99.90
569;DHT22;269;48.884;9.192;2022-10-22T10:59:07;24.50;99.90
569;DHT22;269;48.884;9.192;2022-10-22T11:01:43;24.50;99.90
569;DHT22;269;48.884;9.192;2022-10-22T11:07:08;24.80;99.90
569;DHT22;269;48.884;9.192;2022-10-22T11:09:43;25.30;99.90
569;DHT22;269;48.884;9.192;2022-10-22T11:12:19;25.90;99.90
569;DHT22;269;48.884;9.192;2022-10-22T11:14:57;26.50;99.90
569;DHT22;269;48.884;9.192;2022-10-22T11:17:26;27.20;99.90
569;DHT22;269;48.884;9.192;2022-10-22T11:20:02;27.60;99.90
569;DHT22;269;48.884;9.192;2022-10-22T11:22:34;27.90;99.90
569;DHT22;269;48.884;9.192;2022-10-22T11:25:13;28.10;99.90
569;DHT22;269;48.884;9.192;2022-10-22T11:27:46;28.40;99.90
569;DHT22;269;48.884;9.192;2022-10-22T11:30:16;28.50;99.90
569;DHT22;269;48.884;9.192;2022-10-22T11:32:47;28.80;99.90
569;DHT22;269;48.884;9.192;2022-10-22T11:35:19;28.90;99.90
569;DHT22;269;48.884;9.192;2022-10-22T11:37:48;29.00;99.90
569;DHT22;269;48.884;9.192;2022-10-22T11:40:20;28.90;99.90
569;DHT22;269;48.884;9.192;2022-10-22T11:42:49;29.10;99.90
569;DHT22;269;48.884;9.192;2022-10-22T11:45:27;29.20;99.90
569;DHT22;269;48.884;9.192;2022-10-22T11:47:58;28.80;98.20
569;DHT22;269;48.884;9.192;2022-10-22T11:50:48;28.40;99.80
569;DHT22;269;48.884;9.192;2022-10-22T11:53:25;28.40;99.70
569;DHT22;269;48.884;9.192;2022-10-22T11:55:57;28.30;99.50
569;DHT22;269;48.884;9.192;2022-10-22T11:58:31;28.50;98.30
569;DHT22;269;48.884;9.192;2022-10-22T12:04:19;28.70;98.10
569;DHT22;269;48.884;9.192;2022-10-22T12:09:51;29.20;97.30
569;DHT22;269;48.884;9.192;2022-10-22T12:12:20;29.20;96.60
569;DHT22;269;48.884;9.192;2022-10-22T12:14:52;29.20;97.20
569;DHT22;269;48.884;9.192;2022-10-22T12:17:21;29.10;94.80
569;DHT22;269;48.884;9.192;2022-10-22T12:19:50;28.70;95.90
569;DHT22;269;48.884;9.192;2022-10-22T12:22:22;28.30;95.20
569;DHT22;269;48.884;9.192;2022-10-22T12:24:58;28.00;95.70
569;DHT22;269;48.884;9.192;2022-10-22T12:27:33;27.80;94.40
569;DHT22;269;48.884;9.192;2022-10-22T12:30:02;27.10;95.60
569;DHT22;269;48.884;9.192;2022-10-22T12:32:42;26.70;96.00
569;DHT22;269;48.884;9.192;2022-10-22T12:35:15;26.30;96.40
569;DHT22;269;48.884;9.192;2022-10-22T12:37:42;25.80;97.50
569;DHT22;269;48.884;9.192;2022-10-22T12:40:16;25.70;98.40
569;DHT22;269;48.884;9.192;2022-10-22T12:43:09;25.80;98.40
569;DHT22;269;48.884;9.192;2022-10-22T12:45:37;25.80;97.10
569;DHT22;269;48.884;9.192;2022-10-22T12:48:10;25.40;98.00
569;DHT22;269;48.884;9.192;2022-10-22T12:50:42;25.10;99.10
569;DHT22;269;48.884;9.192;2022-10-22T12:53:14;25.10;99.20
569;DHT22;269;48.884;9.192;2022-10-22T12:55:45;25.10;99.30
569;DHT22;269;48.884;9.192;2022-10-22T12:58:17;25.40;99.40
569;DHT22;269;48.884;9.192;2022-10-22T13:00:46;25.70;98.50
569;DHT22;269;48.884;9.192;2022-10-22T13:03:29;26.00;97.90
569;DHT22;269;48.884;9.192;2022-10-22T13:06:13;26.00;96.50
569;DHT22;269;48.884;9.192;2022-10-22T13:08:40;25.40;96.90
569;DHT22;269;48.884;9.192;2022-10-22T13:11:09;25.00;97.50
569;DHT22;269;48.884;9.192;2022-10-22T13:13:44;24.80;98.50
569;DHT22;269;48.884;9.192;2022-10-22T13:16:18;24.80;99.10
569;DHT22;269;48.884;9.192;2022-10-22T13:18:47;24.90;98.80
569;DHT22;269;48.884;9.192;2022-10-22T13:21:27;25.00;98.70
569;DHT22;269;48.884;9.192;2022-10-22T13:23:57;25.20;99.10
569;DHT22;269;48.884;9.192;2022-10-22T13:26:30;25.40;98.90
569;DHT22;269;48.884;9.192;2022-10-22T13:28:59;25.60;98.90
569;DHT22;269;48.884;9.192;2022-10-22T13:31:29;25.80;99.20
569;DHT22;269;48.884;9.192;2022-10-22T13:34:00;25.90;99.20
569;DHT22;269;48.884;9.192;2022-10-22T13:36:29;25.90;99.10
569;DHT22;269;48.884;9.192;2022-10-22T13:38:56;26.00;99.00
569;DHT22;269;48.884;9.192;2022-10-22T13:41:25;26.10;99.00
569;DHT22;269;48.884;9.192;2022-10-22T13:43:53;26.20;98.40
569;DHT22;269;48.884;9.192;2022-10-22T13:46:23;26.30;98.20
569;DHT22;269;48.884;9.192;2022-10-22T13:48:52;26.20;98.00
569;DHT22;269;48.884;9.192;2022-10-22T13:51:22;26.20;97.50
569;DHT22;269;48.884;9.192;2022-10-22T13:53:51;26.20;97.50
569;DHT22;269;48.884;9.192;2022-10-22T13:56:20;26.20;97.50
569;DHT22;269;48.884;9.192;2022-10-22T13:58:49;25.90;97.30
569;DHT22;269;48.884;9.192;2022-10-22T14:01:19;25.70;98.00
569;DHT22;269;48.884;9.192;2022-10-22T14:03:49;25.40;98.10
569;DHT22;269;48.884;9.192;2022-10-22T14:06:19;24.70;99.00
569;DHT22;269;48.884;9.192;2022-10-22T14:08:48;24.20;99.40
569;DHT22;269;48.884;9.192;2022-10-22T14:11:16;23.70;99.70
569;DHT22;269;48.884;9.192;2022-10-22T14:13:43;23.30;99.90
569;DHT22;269;48.884;9.192;2022-10-22T14:16:16;22.90;99.90
569;DHT22;269;48.884;9.192;2022-10-22T14:18:45;22.60;99.90
569;DHT22;269;48.884;9.192;2022-10-22T14:21:15;22.30;99.90
569;DHT22;269;48.884;9.192;2022-10-22T14:23:45;22.00;99.90
569;DHT22;269;48.884;9.192;2022-10-22T14:26:20;21.80;99.90
569;DHT22;269;48.884;9.192;2022-10-22T14:28:48;21.60;99.90
569;DHT22;269;48.884;9.192;2022-10-22T14:31:16;21.50;99.90
569;DHT22;269;48.884;9.192;2022-10-22T14:33:43;21.50;99.90
569;DHT22;269;48.884;9.192;2022-10-22T14:36:12;21.50;99.90
569;DHT22;269;48.884;9.192;2022-10-22T14:38:41;21.20;99.90
569;DHT22;269;48.884;9.192;2022-10-22T14:41:16;21.10;99.90
569;DHT22;269;48.884;9.192;2022-10-22T14:43:44;21.10;99.90
569;DHT22;269;48.884;9.192;2022-10-22T14:46:12;21.00;99.90
569;DHT22;269;48.884;9.192;2022-10-22T14:48:39;20.90;99.90
569;DHT22;269;48.884;9.192;2022-10-22T14:51:06;20.90;99.90
569;DHT22;269;48.884;9.192;2022-10-22T14:53:36;20.80;99.90
569;DHT22;269;48.884;9.192;2022-10-22T14:56:05;20.80;99.90
569;DHT22;269;48.884;9.192;2022-10-22T14:58:32;20.80;99.90
569;DHT22;269;48.884;9.192;2022-10-22T15:01:00;21.00;99.90
569;DHT22;269;48.884;9.192;2022-10-22T15:03:28;21.10;99.90
569;DHT22;269;48.884;9.192;2022-10-22T15:05:56;21.30;99.90
569;DHT22;269;48.884;9.192;2022-10-22T15:08:23;21.40;99.90
569;DHT22;269;48.884;9.192;2022-10-22T15:10:59;21.50;99.90
569;DHT22;269;48.884;9.192;2022-10-22T15:13:29;21.60;99.90
569;DHT22;269;48.884;9.192;2022-10-22T15:15:57;21.60;99.90
569;DHT22;269;48.884;9.192;2022-10-22T15:18:26;21.50;99.90
569;DHT22;269;48.884;9.192;2022-10-22T15:20:55;21.60;99.90
569;DHT22;269;48.884;9.192;2022-10-22T15:23:22;21.60;99.90
569;DHT22;269;48.884;9.192;2022-10-22T15:25:49;21.60;99.90
569;DHT22;269;48.884;9.192;2022-10-22T15:28:16;21.60;99.90
569;DHT22;269;48.884;9.192;2022-10-22T15:30:51;21.40;99.90
569;DHT22;269;48.884;9.192;2022-10-22T15:33:19;21.40;99.90
569;DHT22;269;48.884;9.192;2022-10-22T15:35:46;21.40;99.90
569;DHT22;269;48.884;9.192;2022-10-22T15:38:13;21.30;99.90
569;DHT22;269;48.884;9.192;2022-10-22T15:40:40;21.00;99.90
569;DHT22;269;48.884;9.192;2022-10-22T15:43:07;20.90;99.90
569;DHT22;269;48.884;9.192;2022-10-22T15:45:34;20.70;99.90
569;DHT22;269;48.884;9.192;2022-10-22T15:48:04;20.60;99.90
569;DHT22;269;48.884;9.192;2022-10-22T15:50:31;20.50;99.90
569;DHT22;269;48.884;9.192;2022-10-22T15:53:03;20.40;99.90
569;DHT22;269;48.884;9.192;2022-10-22T15:55:32;20.20;99.90
569;DHT22;269;48.884;9.192;2022-10-22T15:57:59;20.10;99.90
569;DHT22;269;48.884;9.192;2022-10-22T16:00:26;20.10;99.90
569;DHT22;269;48.884;9.192;2022-10-22T16:02:53;19.90;99.90
569;DHT22;269;48.884;9.192;2022-10-22T16:05:21;19.80;99.90
569;DHT22;269;48.884;9.192;2022-10-22T16:07:49;19.70;99.90
569;DHT22;269;48.884;9.192;2022-10-22T16:10:20;19.60;99.90
569;DHT22;269;48.884;9.192;2022-10-22T16:12:47;19.50;99.90
569;DHT22;269;48.884;9.192;2022-10-22T16:15:16;19.30;99.90
569;DHT22;269;48.884;9.192;2022-10-22T16:17:44;19.20;99.90
569;DHT22;269;48.884;9.192;2022-10-22T16:20:11;19.10;99.90
569;DHT22;269;48.884;9.192;2022-10-22T16:22:40;19.00;99.90
569;DHT22;269;48.884;9.192;2022-10-22T16:25:07;19.00;99.90
569;DHT22;269;48.884;9.192;2022-10-22T16:27:34;18.90;99.90
569;DHT22;269;48.884;9.192;2022-10-22T16:30:03;18.80;99.90
569;DHT22;269;48.884;9.192;2022-10-22T16:32:30;18.50;99.90
569;DHT22;269;48.884;9.192;2022-10-22T16:34:57;18.70;99.90
569;DHT22;269;48.884;9.192;2022-10-22T16:37:24;18.60;99.90
569;DHT22;269;48.884;9.192;2022-10-22T16:39:53;18.60;99.90
569;DHT22;269;48.884;9.192;2022-10-22T16:42:20;18.50;99.90
569;DHT22;269;48.884;9.192;2022-10-22T16:44:47;18.40;99.90
569;DHT22;269;48.884;9.192;2022-10-22T16:47:15;18.30;99.90
569;DHT22;269;48.884;9.192;2022-10-22T16:49:42;18.20;99.90
569;DHT22;269;48.884;9.192;2022-10-22T16:52:09;18.10;99.90
569;DHT22;269;48.884;9.192;2022-10-22T16:54:36;18.00;99.90
569;DHT22;269;48.884;9.192;2022-10-22T16:57:04;18.00;99.90
569;DHT22;269;48.884;9.192;2022-10-22T16:59:32;17.90;99.90
569;DHT22;269;48.884;9.192;2022-10-22T17:01:59;17.90;99.90